Time;durP1;ratioP1;P1;durP2;ratioP2;P2;SDS_P1;SDS_P2;PMS_P1;PMS_P2;Temp;Humidity;BMP_temperature;BMP_pressure;BME280_temperature;BME280_humidity;BME280_pressure;Samples;Min_cycle;Max_cycle;Signal;HPM_P1;HPM_P2
2023/01/11 00:01:32;;;;;;;4.63;1.67;;;;;;;;;;5058505;28;20493;-73
2023/01/11 00:03:59;;;;;;;10.13;2.00;;;;;;;;;;5058050;28;20893;-73
2023/01/11 00:06:26;;;;;;;8.20;2.50;;;;;;;;;;5058698;28;20452;-73
2023/01/11 00:08:54;;;;;;;6.80;2.03;;;;;;;;;;5058122;28;20460;-73
2023/01/11 00:11:23;;;;;;;8.10;2.87;;;;;;;;;;5058544;28;20453;-73
2023/01/11 00:13:50;;;;;;;12.00;3.23;;;;;;;;;;5058651;28;20451;-73
2023/01/11 00:16:17;;;;;;;6.30;2.40;;;;;;;;;;5059294;28;20506;-73
2023/01/11 00:18:44;;;;;;;9.40;3.03;;;;;;;;;;5058002;28;20497;-73
2023/01/11 00:21:11;;;;;;;3.47;1.90;;;;;;;;;;5058677;28;20540;-73
2023/01/11 00:23:38;;;;;;;7.73;2.20;;;;;;;;;;5058552;28;20464;-73
2023/01/11 00:26:06;;;;;;;9.80;1.80;;;;;;;;;;5057782;28;20460;-73
2023/01/11 00:28:34;;;;;;;15.90;2.20;;;;;;;;;;5058452;28;20469;-73
2023/01/11 00:31:01;;;;;;;13.80;2.93;;;;;;;;;;5058196;28;20522;-73
2023/01/11 00:33:27;;;;;;;6.30;1.80;;;;;;;;;;5058253;28;20465;-73
2023/01/11 00:35:54;;;;;;;6.60;2.53;;;;;;;;;;5057450;28;20449;-73
2023/01/11 00:49:35;;;;;;;3.40;1.67;;;;;;;;;;5015758;28;20807;-73
2023/01/11 00:52:04;;;;;;;7.63;1.93;;;;;;;;;;5016262;28;20538;-72
2023/01/11 00:54:34;;;;;;;7.57;3.00;;;;;;;;;;5034136;28;20468;-73
2023/01/11 00:57:13;;;;;;;8.07;2.67;;;;;;;;;;5058279;28;20465;-72
2023/01/11 00:59:41;;;;;;;9.30;2.17;;;;;;;;;;5057522;28;20481;-73
2023/01/11 01:02:08;;;;;;;6.00;3.27;;;;;;;;;;5057693;28;20511;-73
2023/01/11 01:04:39;;;;;;;4.30;1.50;;;;;;;;;;5056770;28;20514;-73
2023/01/11 01:07:10;;;;;;;3.57;1.87;;;;;;;;;;5057542;28;20465;-73
2023/01/11 01:09:40;;;;;;;8.53;1.57;;;;;;;;;;5057522;28;20721;-73
2023/01/11 01:12:08;;;;;;;5.80;2.07;;;;;;;;;;5057211;28;20551;-73
2023/01/11 01:14:37;;;;;;;6.27;1.73;;;;;;;;;;5057422;28;20528;-73
2023/01/11 01:17:06;;;;;;;3.93;1.40;;;;;;;;;;5057503;28;20483;-72
2023/01/11 01:19:34;;;;;;;2.90;1.57;;;;;;;;;;5057152;28;20760;-73
2023/01/11 01:22:01;;;;;;;4.77;1.90;;;;;;;;;;5057125;28;20464;-73
2023/01/11 01:24:32;;;;;;;6.40;2.10;;;;;;;;;;5056949;28;20511;-72
2023/01/11 01:26:59;;;;;;;3.10;1.53;;;;;;;;;;5056700;28;20468;-73
2023/01/11 01:29:26;;;;;;;7.13;1.93;;;;;;;;;;5057536;28;20888;-72
2023/01/11 01:31:53;;;;;;;11.90;2.30;;;;;;;;;;5056901;28;20524;-73
2023/01/11 01:34:21;;;;;;;2.90;1.03;;;;;;;;;;5057317;28;20453;-73
2023/01/11 01:36:51;;;;;;;5.20;1.83;;;;;;;;;;5056718;28;20465;-73
2023/01/11 01:39:17;;;;;;;11.57;1.80;;;;;;;;;;5056817;28;20520;-73
2023/01/11 01:41:45;;;;;;;5.40;1.40;;;;;;;;;;5014421;28;1478517;-72
2023/01/11 01:44:32;;;;;;;4.20;1.40;;;;;;;;;;5076868;28;20248;-72
2023/01/11 01:46:59;;;;;;;4.17;1.10;;;;;;;;;;5077256;28;20488;-72
2023/01/11 01:49:29;;;;;;;4.50;1.80;;;;;;;;;;5076953;28;20444;-72
2023/01/11 01:51:58;;;;;;;3.00;1.83;;;;;;;;;;5077461;28;20452;-72
2023/01/11 01:54:28;;;;;;;2.50;1.40;;;;;;;;;;5076580;28;20495;-73
2023/01/11 01:56:58;;;;;;;1.70;0.93;;;;;;;;;;5076470;28;20527;-72
2023/01/11 01:59:27;;;;;;;2.33;0.93;;;;;;;;;;5076539;28;20485;-72
2023/01/11 02:01:55;;;;;;;3.67;1.23;;;;;;;;;;5076939;28;20543;-74
2023/01/11 02:04:24;;;;;;;2.70;1.13;;;;;;;;;;5076764;28;20744;-73
2023/01/11 02:06:55;;;;;;;3.53;1.77;;;;;;;;;;5076502;28;20462;-73
2023/01/11 02:09:26;;;;;;;3.20;1.07;;;;;;;;;;5076512;28;20460;-74
2023/01/11 02:11:54;;;;;;;1.93;1.00;;;;;;;;;;5076494;28;20459;-73
2023/01/11 02:14:23;;;;;;;4.50;1.27;;;;;;;;;;5076836;28;20536;-73
2023/01/11 02:16:51;;;;;;;3.07;1.30;;;;;;;;;;5076406;28;20471;-73
2023/01/11 02:19:39;;;;;;;3.53;1.53;;;;;;;;;;5076238;28;20728;-73
2023/01/11 02:22:27;;;;;;;3.63;1.50;;;;;;;;;;5076636;28;20539;-73
2023/01/11 02:25:03;;;;;;;2.00;1.00;;;;;;;;;;5068400;28;20452;-73
2023/01/11 02:27:37;;;;;;;2.50;0.80;;;;;;;;;;5076686;28;20472;-73
2023/01/11 02:30:15;;;;;;;5.03;1.50;;;;;;;;;;5076574;28;20486;-73
2023/01/11 02:32:51;;;;;;;4.23;1.30;;;;;;;;;;5076691;28;20452;-73
2023/01/11 02:35:21;;;;;;;1.70;0.80;;;;;;;;;;5076335;28;20440;-73
2023/01/11 02:37:52;;;;;;;3.80;1.43;;;;;;;;;;5076453;28;20466;-73
2023/01/11 02:40:30;;;;;;;3.10;1.00;;;;;;;;;;5076195;28;20484;-73
2023/01/11 02:45:51;;;;;;;3.07;1.60;;;;;;;;;;5076193;28;20416;-73
2023/01/11 02:48:23;;;;;;;2.53;1.00;;;;;;;;;;5076587;28;20523;-74
2023/01/11 02:50:52;;;;;;;3.97;1.20;;;;;;;;;;5076277;28;20464;-74
2023/01/11 02:53:23;;;;;;;2.27;1.50;;;;;;;;;;5076167;28;20467;-74
2023/01/11 02:55:52;;;;;;;2.23;1.10;;;;;;;;;;5076383;28;20518;-73
2023/01/11 02:58:21;;;;;;;6.03;1.03;;;;;;;;;;5076395;28;20478;-74
2023/01/11 03:00:51;;;;;;;2.30;0.97;;;;;;;;;;5076276;28;20915;-73
2023/01/11 03:03:21;;;;;;;4.07;1.20;;;;;;;;;;5076409;28;20455;-74
2023/01/11 03:05:50;;;;;;;2.33;1.03;;;;;;;;;;5075881;28;20456;-73
2023/01/11 03:08:43;;;;;;;3.10;1.10;;;;;;;;;;5076463;28;20445;-73
2023/01/11 03:11:13;;;;;;;2.70;1.20;;;;;;;;;;5061862;28;20479;-73
2023/01/11 03:13:50;;;;;;;2.50;1.17;;;;;;;;;;5076399;28;20891;-73
2023/01/11 03:16:25;;;;;;;2.97;1.33;;;;;;;;;;5076283;28;20444;-73
2023/01/11 03:18:54;;;;;;;2.90;1.00;;;;;;;;;;5074837;28;20471;-73
2023/01/11 03:21:29;;;;;;;2.60;1.40;;;;;;;;;;5074830;28;20456;-74
2023/01/11 03:24:05;;;;;;;4.93;0.90;;;;;;;;;;5067181;28;20449;-73
2023/01/11 03:26:39;;;;;;;3.43;1.00;;;;;;;;;;5055354;28;20449;-74
2023/01/11 03:29:14;;;;;;;3.37;1.20;;;;;;;;;;5055511;28;20448;-74
2023/01/11 03:31:47;;;;;;;4.17;1.10;;;;;;;;;;5055970;28;20457;-73
2023/01/11 03:34:19;;;;;;;4.80;1.40;;;;;;;;;;5055448;28;20445;-73
2023/01/11 03:36:50;;;;;;;2.27;0.97;;;;;;;;;;5055867;28;20457;-72
2023/01/11 03:39:21;;;;;;;2.63;0.80;;;;;;;;;;5055517;28;20486;-73
2023/01/11 03:41:49;;;;;;;2.33;0.90;;;;;;;;;;5074098;28;20944;-73
2023/01/11 03:44:18;;;;;;;3.03;1.30;;;;;;;;;;5075901;28;20444;-73
2023/01/11 03:46:49;;;;;;;2.10;0.90;;;;;;;;;;5075798;28;20525;-73
2023/01/11 03:49:20;;;;;;;1.97;1.17;;;;;;;;;;5075870;28;20506;-73
2023/01/11 03:51:56;;;;;;;1.90;1.00;;;;;;;;;;5065756;28;20749;-73
2023/01/11 03:54:52;;;;;;;2.40;0.87;;;;;;;;;;5076021;28;20449;-73
2023/01/11 03:57:23;;;;;;;1.63;0.90;;;;;;;;;;5061055;28;20481;-72
2023/01/11 03:59:59;;;;;;;1.60;0.80;;;;;;;;;;5055392;28;20526;-72
2023/01/11 04:02:56;;;;;;;;;;;;;;;;;;;;;
2023/01/11 04:05:29;;;;;;;2.83;1.10;;;;;;;;;;5058362;28;20450;-73
2023/01/11 04:07:59;;;;;;;1.30;0.67;;;;;;;;;;5058556;28;20467;-73
2023/01/11 04:10:27;;;;;;;3.43;1.00;;;;;;;;;;5059290;28;20853;-72
2023/01/11 04:12:55;;;;;;;2.77;0.93;;;;;;;;;;5058935;28;20523;-74
2023/01/11 04:15:29;;;;;;;2.27;0.90;;;;;;;;;;5058607;28;20476;-72
2023/01/11 04:18:03;;;;;;;3.70;1.40;;;;;;;;;;5058747;28;20461;-72
2023/01/11 04:20:33;;;;;;;1.93;1.03;;;;;;;;;;5070816;28;20801;-72
2023/01/11 04:23:05;;;;;;;2.23;1.00;;;;;;;;;;5071056;28;20834;-73
2023/01/11 04:25:34;;;;;;;1.83;1.07;;;;;;;;;;5078071;28;20549;-73
2023/01/11 04:28:07;;;;;;;3.60;1.00;;;;;;;;;;5077745;28;20483;-74
2023/01/11 04:30:37;;;;;;;1.60;0.90;;;;;;;;;;5077881;28;20453;-74
2023/01/11 04:33:18;;;;;;;2.90;1.17;;;;;;;;;;5078501;28;20460;-73
2023/01/11 04:38:30;;;;;;;1.90;0.93;;;;;;;;;;5078053;28;20725;-73
2023/01/11 04:43:39;;;;;;;1.73;0.80;;;;;;;;;;5077895;28;20439;-73
2023/01/11 04:46:09;;;;;;;3.83;1.60;;;;;;;;;;5070059;28;20449;-73
2023/01/11 04:48:39;;;;;;;2.20;0.90;;;;;;;;;;5075394;28;20459;-73
2023/01/11 04:51:07;;;;;;;2.50;1.00;;;;;;;;;;5077831;28;20860;-73
2023/01/11 04:53:38;;;;;;;5.23;1.00;;;;;;;;;;5077880;28;20471;-73
2023/01/11 04:56:07;;;;;;;5.00;1.30;;;;;;;;;;5078143;28;20519;-73
2023/01/11 04:58:35;;;;;;;3.50;1.00;;;;;;;;;;5060731;28;20469;-73
2023/01/11 05:01:08;;;;;;;7.40;1.70;;;;;;;;;;5057742;28;20758;-73
2023/01/11 05:03:38;;;;;;;2.07;1.00;;;;;;;;;;5057763;28;20460;-73
2023/01/11 05:06:11;;;;;;;7.00;1.40;;;;;;;;;;5057978;28;20453;-73
2023/01/11 05:08:39;;;;;;;2.50;0.90;;;;;;;;;;5057812;28;20476;-73
2023/01/11 05:11:08;;;;;;;2.93;1.07;;;;;;;;;;5058163;28;20460;-73
2023/01/11 05:13:44;;;;;;;4.23;1.00;;;;;;;;;;5057829;28;20480;-73
2023/01/11 05:16:13;;;;;;;1.67;0.77;;;;;;;;;;5057469;28;20473;-73
2023/01/11 05:18:41;;;;;;;3.87;1.20;;;;;;;;;;5056852;28;20923;-73
2023/01/11 05:21:12;;;;;;;1.50;0.80;;;;;;;;;;5076261;28;20490;-73
2023/01/11 05:23:41;;;;;;;2.63;0.97;;;;;;;;;;5077379;28;20472;-73
2023/01/11 05:26:10;;;;;;;1.60;1.00;;;;;;;;;;5076925;28;20502;-73
2023/01/11 05:28:41;;;;;;;2.17;1.23;;;;;;;;;;5077294;28;20469;-73
2023/01/11 05:31:09;;;;;;;2.93;1.07;;;;;;;;;;5076252;28;20510;-73
2023/01/11 05:33:44;;;;;;;1.77;0.90;;;;;;;;;;5070587;28;20446;-73
2023/01/11 05:36:14;;;;;;;1.53;0.90;;;;;;;;;;5077040;28;20734;-73
2023/01/11 05:38:42;;;;;;;5.43;0.87;;;;;;;;;;5076575;28;20456;-74
2023/01/11 05:41:11;;;;;;;3.27;1.00;;;;;;;;;;5076069;28;20508;-73
2023/01/11 05:45:27;;;;;;;1.53;1.00;;;;;;;;;;5075804;28;20464;-73
2023/01/11 05:46:29;;;;;;;2.03;0.77;;;;;;;;;;5075561;28;20510;-74
2023/01/11 05:48:57;;;;;;;5.83;1.03;;;;;;;;;;5075874;28;20488;-73
2023/01/11 05:51:29;;;;;;;1.50;0.83;;;;;;;;;;5076057;28;20842;-73
2023/01/11 05:53:58;;;;;;;2.57;0.90;;;;;;;;;;5075768;28;20463;-74
2023/01/11 05:56:25;;;;;;;1.83;0.93;;;;;;;;;;5076513;28;20459;-74
2023/01/11 05:58:56;;;;;;;1.70;0.80;;;;;;;;;;5076289;28;20476;-74
2023/01/11 06:01:34;;;;;;;1.63;0.90;;;;;;;;;;5073520;28;20480;-74
2023/01/11 06:04:02;;;;;;;2.47;1.30;;;;;;;;;;5055994;28;20469;-73
2023/01/11 06:06:31;;;;;;;1.30;0.60;;;;;;;;;;5055542;28;21096;-74
2023/01/11 06:09:02;;;;;;;2.67;0.80;;;;;;;;;;5055176;28;20469;-74
2023/01/11 06:11:30;;;;;;;1.40;0.80;;;;;;;;;;5055038;28;20446;-74
2023/01/11 06:14:00;;;;;;;1.80;0.80;;;;;;;;;;5054793;28;20825;-75
2023/01/11 06:16:28;;;;;;;2.40;0.80;;;;;;;;;;5055588;28;20479;-75
2023/01/11 06:18:55;;;;;;;2.20;1.33;;;;;;;;;;5054830;28;20935;-75
2023/01/11 06:21:24;;;;;;;2.40;1.37;;;;;;;;;;5056412;28;20516;-74
2023/01/11 06:23:55;;;;;;;1.53;0.60;;;;;;;;;;5071900;28;21051;-74
2023/01/11 06:26:23;;;;;;;2.13;1.00;;;;;;;;;;5074231;28;20717;-75
2023/01/11 06:28:54;;;;;;;2.10;0.90;;;;;;;;;;5073801;28;20473;-75
2023/01/11 06:31:22;;;;;;;1.80;1.03;;;;;;;;;;5073304;28;20461;-74
2023/01/11 06:33:57;;;;;;;1.70;0.60;;;;;;;;;;5065914;28;20888;-74
2023/01/11 06:36:25;;;;;;;2.30;0.90;;;;;;;;;;5069970;28;20448;-74
2023/01/11 06:39:05;;;;;;;2.40;1.03;;;;;;;;;;5070915;28;20475;-75
2023/01/11 06:41:43;;;;;;;1.90;1.07;;;;;;;;;;5053204;28;20485;-75
2023/01/11 06:44:11;;;;;;;1.50;0.73;;;;;;;;;;5053038;28;20573;-75
2023/01/11 06:46:39;;;;;;;2.63;1.13;;;;;;;;;;5052006;28;20497;-75
2023/01/11 06:49:07;;;;;;;1.57;0.80;;;;;;;;;;5053022;28;20758;-74
2023/01/11 06:51:51;;;;;;;1.43;0.67;;;;;;;;;;5059624;28;20456;-74
2023/01/11 06:54:24;;;;;;;3.20;1.00;;;;;;;;;;5061689;28;20691;-74
2023/01/11 06:56:52;;;;;;;2.30;1.20;;;;;;;;;;5069640;28;20496;-74
2023/01/11 06:59:25;;;;;;;2.43;1.33;;;;;;;;;;5073015;28;20460;-74
2023/01/11 07:01:57;;;;;;;1.63;0.80;;;;;;;;;;5073829;28;20515;-75
2023/01/11 07:04:33;;;;;;;3.13;1.77;;;;;;;;;;5074292;28;20505;-75
2023/01/11 07:07:01;;;;;;;1.93;1.27;;;;;;;;;;5073716;28;20479;-75
2023/01/11 07:09:30;;;;;;;2.33;1.10;;;;;;;;;;5073306;28;20456;-74
2023/01/11 07:11:58;;;;;;;1.67;0.90;;;;;;;;;;5073357;28;20453;-75
2023/01/11 07:14:27;;;;;;;1.87;0.90;;;;;;;;;;5064618;28;20465;-75
2023/01/11 07:16:55;;;;;;;1.80;1.10;;;;;;;;;;5054355;28;21044;-74
2023/01/11 07:19:24;;;;;;;5.40;1.40;;;;;;;;;;5054213;28;20457;-75
2023/01/11 07:21:51;;;;;;;2.03;1.00;;;;;;;;;;5053359;28;21150;-74
2023/01/11 07:24:29;;;;;;;1.60;0.90;;;;;;;;;;5052932;28;20481;-74
2023/01/11 07:27:01;;;;;;;1.60;0.90;;;;;;;;;;5053372;28;20453;-74
2023/01/11 07:29:33;;;;;;;2.57;1.10;;;;;;;;;;5054433;28;20481;-74
2023/01/11 07:32:00;;;;;;;1.73;1.07;;;;;;;;;;5053414;28;20549;-74
2023/01/11 07:34:28;;;;;;;2.43;1.27;;;;;;;;;;5053571;28;20458;-75
2023/01/11 07:36:59;;;;;;;2.70;1.67;;;;;;;;;;5054835;28;20939;-75
2023/01/11 07:39:26;;;;;;;1.60;1.00;;;;;;;;;;5057565;28;20468;-74
2023/01/11 07:45:00;;;;;;;2.83;1.63;;;;;;;;;;5070503;28;20742;-74
2023/01/11 07:47:31;;;;;;;1.83;1.03;;;;;;;;;;5073439;28;20698;-74
2023/01/11 07:49:58;;;;;;;1.67;1.10;;;;;;;;;;5057589;28;20441;-74
2023/01/11 07:52:29;;;;;;;3.00;1.07;;;;;;;;;;5057165;28;20459;-75
2023/01/11 07:55:01;;;;;;;2.13;1.20;;;;;;;;;;5072009;28;20548;-75
2023/01/11 07:57:29;;;;;;;2.67;1.60;;;;;;;;;;5073895;28;20484;-74
2023/01/11 07:59:59;;;;;;;2.07;1.33;;;;;;;;;;5069319;28;20537;-74
2023/01/11 08:02:27;;;;;;;3.70;1.80;;;;;;;;;;5065909;28;20710;-73
2023/01/11 08:04:55;;;;;;;2.57;1.57;;;;;;;;;;5062891;28;20842;-73
2023/01/11 08:07:27;;;;;;;3.03;1.70;;;;;;;;;;5067839;28;20844;-77
2023/01/11 08:10:05;;;;;;;2.93;1.40;;;;;;;;;;5074345;28;20654;-74
2023/01/11 08:15:20;;;;;;;4.57;1.53;;;;;;;;;;5076515;28;20419;-74
2023/01/11 08:17:55;;;;;;;2.00;1.30;;;;;;;;;;5067227;28;20468;-74
2023/01/11 08:20:22;;;;;;;4.37;1.77;;;;;;;;;;5059654;28;20493;-74
2023/01/11 08:22:50;;;;;;;2.30;1.10;;;;;;;;;;5055406;28;20470;-74
2023/01/11 08:25:21;;;;;;;4.10;2.63;;;;;;;;;;5059623;28;20480;-73
2023/01/11 08:27:51;;;;;;;2.00;1.27;;;;;;;;;;5061806;28;20569;-74
2023/01/11 08:30:24;;;;;;;2.57;1.60;;;;;;;;;;5065242;28;20461;-74
2023/01/11 08:32:59;;;;;;;2.40;1.20;;;;;;;;;;5056491;28;20515;-74
2023/01/11 08:35:27;;;;;;;7.43;4.40;;;;;;;;;;5060563;28;20471;-75
2023/01/11 08:38:00;;;;;;;3.07;2.20;;;;;;;;;;5059205;28;21017;-75
2023/01/11 08:40:30;;;;;;;2.83;1.93;;;;;;;;;;5068933;28;20504;-75
2023/01/11 08:43:02;;;;;;;2.70;1.23;;;;;;;;;;5054765;28;20472;-73
2023/01/11 08:45:33;;;;;;;2.40;1.70;;;;;;;;;;5067104;28;20461;-74
2023/01/11 08:48:01;;;;;;;2.67;2.10;;;;;;;;;;5070500;28;20452;-74
2023/01/11 08:51:07;;;;;;;4.10;2.17;;;;;;;;;;5065693;28;20457;-74
2023/01/11 08:53:40;;;;;;;3.40;2.00;;;;;;;;;;4980631;28;20465;-73
2023/01/11 08:56:08;;;;;;;6.50;2.33;;;;;;;;;;5047528;28;20487;-74
2023/01/11 08:58:39;;;;;;;22.33;11.17;;;;;;;;;;5056444;28;20536;-75
2023/01/11 09:01:21;;;;;;;3.23;2.17;;;;;;;;;;5060325;28;20478;-73
2023/01/11 09:03:54;;;;;;;6.20;1.80;;;;;;;;;;5070677;28;20459;-74
2023/01/11 09:06:22;;;;;;;4.20;2.40;;;;;;;;;;5051808;22;20531;-80
2023/01/11 09:08:52;;;;;;;1.90;1.57;;;;;;;;;;5043145;28;20473;-78
2023/01/11 09:14:06;;;;;;;2.10;1.37;;;;;;;;;;5042484;28;20434;-79
2023/01/11 09:16:44;;;;;;;2.50;1.90;;;;;;;;;;5036237;28;20475;-80
2023/01/11 09:19:12;;;;;;;3.70;2.60;;;;;;;;;;5055671;28;20427;-80
2023/01/11 09:21:43;;;;;;;3.17;2.33;;;;;;;;;;5055746;28;20545;-80
2023/01/11 09:24:11;;;;;;;4.50;3.57;;;;;;;;;;5045660;28;20446;-76
2023/01/11 09:26:40;;;;;;;2.47;1.67;;;;;;;;;;5042419;28;20467;-76
2023/01/11 09:29:09;;;;;;;2.90;2.03;;;;;;;;;;5027952;28;20557;-78
2023/01/11 09:31:39;;;;;;;2.17;1.33;;;;;;;;;;5040491;28;20466;-79
2023/01/11 09:34:11;;;;;;;2.47;1.70;;;;;;;;;;5033184;28;20432;-80
2023/01/11 09:36:44;;;;;;;5.33;1.77;;;;;;;;;;5050806;28;20466;-79
2023/01/11 09:39:15;;;;;;;3.50;2.20;;;;;;;;;;5051573;28;20470;-79
2023/01/11 09:42:09;;;;;;;3.10;2.27;;;;;;;;;;5051907;28;20478;-80
2023/01/11 09:44:37;;;;;;;4.67;2.10;;;;;;;;;;5051532;28;20438;-79
2023/01/11 09:47:13;;;;;;;3.37;2.30;;;;;;;;;;5051480;28;20850;-79
2023/01/11 09:49:51;;;;;;;2.70;1.73;;;;;;;;;;5049844;28;20454;-80
2023/01/11 09:52:23;;;;;;;4.07;2.60;;;;;;;;;;5030056;28;20887;-77
2023/01/11 09:54:52;;;;;;;5.33;2.60;;;;;;;;;;5019549;28;20451;-79
2023/01/11 09:57:25;;;;;;;3.40;2.23;;;;;;;;;;5026007;28;20458;-78
2023/01/11 09:59:56;;;;;;;2.27;1.80;;;;;;;;;;5029365;28;20530;-80
2023/01/11 10:02:35;;;;;;;2.50;1.90;;;;;;;;;;5030155;28;20925;-78
2023/01/11 10:05:22;;;;;;;3.93;2.50;;;;;;;;;;5034025;28;20466;-78
2023/01/11 10:07:59;;;;;;;2.13;1.27;;;;;;;;;;5024584;28;20477;-78
2023/01/11 10:10:33;;;;;;;6.20;2.97;;;;;;;;;;5039732;28;20454;-78
2023/01/11 10:13:43;;;;;;;;;;;;;;;;;;;;;
2023/01/11 10:16:43;;;;;;;2.40;1.57;;;;;;;;;;5036647;28;20466;-79
2023/01/11 10:19:19;;;;;;;2.60;1.63;;;;;;;;;;5043482;28;20466;-81
2023/01/11 10:21:52;;;;;;;3.03;1.67;;;;;;;;;;5046892;28;20470;-81
2023/01/11 10:24:23;;;;;;;1.90;1.17;;;;;;;;;;5051153;28;20715;-79
2023/01/11 10:26:57;;;;;;;2.07;1.20;;;;;;;;;;5052367;28;20465;-80
2023/01/11 10:35:57;;;;;;;3.17;0.90;;;;;;;;;;5050204;28;20468;-80
2023/01/11 10:38:41;;;;;;;2.73;1.10;;;;;;;;;;5047687;28;20427;-79
2023/01/11 10:41:24;;;;;;;3.83;0.90;;;;;;;;;;5049223;28;20868;-80
2023/01/11 10:44:03;;;;;;;5.40;1.63;;;;;;;;;;5029124;28;20451;-80
2023/01/11 10:46:54;;;;;;;3.43;0.73;;;;;;;;;;5033689;28;20449;-80
2023/01/11 10:49:46;;;;;;;1.90;0.80;;;;;;;;;;5038166;28;20501;-80
2023/01/11 10:52:28;;;;;;;2.47;0.90;;;;;;;;;;5020391;28;20491;-80
2023/01/11 10:55:01;;;;;;;4.27;2.13;;;;;;;;;;5036718;28;20573;-78
2023/01/11 10:57:41;;;;;;;2.60;1.23;;;;;;;;;;5020306;28;20451;-78
2023/01/11 11:00:22;;;;;;;2.07;0.83;;;;;;;;;;5038161;28;20454;-79
2023/01/11 11:02:59;;;;;;;10.53;7.43;;;;;;;;;;5038695;28;20543;-78
2023/01/11 11:05:32;;;;;;;5.80;3.10;;;;;;;;;;5038449;28;20485;-79
2023/01/11 11:08:07;;;;;;;5.30;3.00;;;;;;;;;;5031811;28;20523;-78
2023/01/11 11:10:39;;;;;;;6.47;3.30;;;;;;;;;;5023170;28;20462;-78
2023/01/11 11:13:12;;;;;;;3.40;1.80;;;;;;;;;;5028959;28;20463;-79
2023/01/11 11:15:42;;;;;;;2.57;1.60;;;;;;;;;;5038077;28;20488;-80
2023/01/11 11:18:10;;;;;;;4.00;1.80;;;;;;;;;;5046152;28;20490;-79
2023/01/11 11:20:39;;;;;;;4.40;1.80;;;;;;;;;;5041032;28;20472;-79
2023/01/11 11:23:14;;;;;;;6.60;4.03;;;;;;;;;;5043035;28;20479;-79
2023/01/11 11:25:42;;;;;;;6.83;3.80;;;;;;;;;;5040483;28;20524;-78
2023/01/11 11:28:26;;;;;;;5.80;3.53;;;;;;;;;;5041804;28;20458;-79
2023/01/11 11:30:58;;;;;;;2.30;1.63;;;;;;;;;;5040629;28;20805;-78
2023/01/11 11:33:30;;;;;;;4.47;1.90;;;;;;;;;;5038452;28;20457;-78
2023/01/11 11:35:58;;;;;;;2.80;1.50;;;;;;;;;;5042259;28;20457;-78
2023/01/11 11:38:30;;;;;;;1.77;1.07;;;;;;;;;;5043076;28;20512;-79
2023/01/11 11:41:04;;;;;;;2.70;1.47;;;;;;;;;;5043821;28;20514;-79
2023/01/11 11:43:32;;;;;;;10.73;3.33;;;;;;;;;;5041296;28;20443;-79
2023/01/11 11:46:00;;;;;;;3.60;1.47;;;;;;;;;;5042006;28;20854;-78
2023/01/11 11:48:30;;;;;;;3.70;1.60;;;;;;;;;;5042261;28;20438;-78
2023/01/11 11:51:01;;;;;;;4.73;1.50;;;;;;;;;;5040960;28;20486;-78
2023/01/11 11:53:43;;;;;;;3.17;1.47;;;;;;;;;;5037629;28;20474;-79
2023/01/11 11:56:19;;;;;;;4.47;1.73;;;;;;;;;;5035775;28;20435;-80
2023/01/11 11:58:50;;;;;;;4.87;1.60;;;;;;;;;;5052369;28;20465;-79
2023/01/11 12:01:46;;;;;;;9.83;2.13;;;;;;;;;;5053742;28;20506;-78
2023/01/11 12:04:20;;;;;;;6.27;2.17;;;;;;;;;;5045404;28;20484;-77
2023/01/11 12:06:51;;;;;;;5.70;2.13;;;;;;;;;;5040136;28;20458;-77
2023/01/11 12:09:28;;;;;;;3.43;1.70;;;;;;;;;;5040241;28;20470;-79
2023/01/11 12:11:57;;;;;;;5.00;1.67;;;;;;;;;;5041921;28;20446;-78
2023/01/11 12:14:27;;;;;;;2.90;1.00;;;;;;;;;;5044171;28;20885;-78
2023/01/11 12:16:54;;;;;;;4.63;1.57;;;;;;;;;;5039604;28;20458;-78
2023/01/11 12:19:26;;;;;;;4.67;1.47;;;;;;;;;;5048374;28;20473;-80
2023/01/11 12:21:54;;;;;;;4.17;1.40;;;;;;;;;;5034906;28;20506;-80
2023/01/11 12:24:22;;;;;;;2.00;1.20;;;;;;;;;;5034443;28;20494;-79
2023/01/11 12:27:00;;;;;;;4.63;1.60;;;;;;;;;;5038963;28;20464;-78
2023/01/11 12:29:38;;;;;;;3.97;1.40;;;;;;;;;;5041959;28;20691;-78
2023/01/11 12:32:11;;;;;;;9.00;5.20;;;;;;;;;;5050602;28;20546;-79
2023/01/11 12:34:48;;;;;;;3.10;1.90;;;;;;;;;;5059809;28;20490;-79
2023/01/11 12:37:22;;;;;;;3.33;1.40;;;;;;;;;;5053772;28;20510;-79
2023/01/11 12:39:54;;;;;;;5.87;1.93;;;;;;;;;;5041059;28;20468;-79
2023/01/11 12:42:38;;;;;;;6.30;2.63;;;;;;;;;;5047467;28;20489;-80
2023/01/11 12:45:17;;;;;;;3.67;2.00;;;;;;;;;;5049728;28;20461;-81
2023/01/11 12:48:05;;;;;;;3.80;1.80;;;;;;;;;;5052522;28;20461;-79
2023/01/11 12:50:53;;;;;;;6.93;2.67;;;;;;;;;;5052674;28;20446;-79
2023/01/11 12:53:39;;;;;;;5.53;1.90;;;;;;;;;;5047892;28;20478;-78
2023/01/11 12:56:21;;;;;;;3.63;1.90;;;;;;;;;;5042919;28;20510;-79
2023/01/11 12:59:02;;;;;;;2.37;1.33;;;;;;;;;;5043584;28;20515;-79
2023/01/11 13:01:50;;;;;;;4.83;2.03;;;;;;;;;;5048424;28;20461;-80
2023/01/11 13:04:34;;;;;;;3.40;1.70;;;;;;;;;;5050296;28;20461;-79
2023/01/11 13:07:06;;;;;;;3.60;1.80;;;;;;;;;;5042644;28;20779;-79
2023/01/11 13:09:51;;;;;;;5.23;1.57;;;;;;;;;;5046848;28;20526;-80
2023/01/11 13:12:26;;;;;;;4.03;1.77;;;;;;;;;;5041132;28;20523;-79
2023/01/11 13:15:01;;;;;;;5.20;1.93;;;;;;;;;;5048985;28;20466;-79
2023/01/11 13:17:34;;;;;;;5.80;2.10;;;;;;;;;;5051997;28;20450;-79
2023/01/11 13:20:14;;;;;;;3.47;1.73;;;;;;;;;;5050173;28;20477;-79
2023/01/11 13:22:48;;;;;;;4.43;3.13;;;;;;;;;;5048983;28;20576;-78
2023/01/11 13:25:19;;;;;;;4.10;2.80;;;;;;;;;;5041836;28;20438;-79
2023/01/11 13:27:48;;;;;;;8.60;3.87;;;;;;;;;;5044744;28;20944;-79
2023/01/11 13:30:26;;;;;;;8.90;4.13;;;;;;;;;;5046753;28;20548;-78
2023/01/11 13:33:07;;;;;;;5.90;3.53;;;;;;;;;;5040094;28;20810;-79
2023/01/11 13:35:37;;;;;;;12.40;4.23;;;;;;;;;;5042362;28;20454;-78
2023/01/11 13:38:07;;;;;;;7.57;4.57;;;;;;;;;;5044166;28;20454;-78
2023/01/11 13:40:37;;;;;;;7.57;3.83;;;;;;;;;;5039718;28;20457;-79
2023/01/11 13:43:07;;;;;;;6.33;3.70;;;;;;;;;;5043913;28;20755;-80
2023/01/11 13:45:45;;;;;;;8.60;4.80;;;;;;;;;;5049890;28;20485;-80
2023/01/11 13:48:17;;;;;;;4.70;3.30;;;;;;;;;;5048509;28;20461;-81
2023/01/11 13:50:48;;;;;;;4.67;2.80;;;;;;;;;;5050997;28;20506;-80
2023/01/11 13:53:25;;;;;;;5.07;2.93;;;;;;;;;;5047963;28;20447;-79
2023/01/11 13:55:56;;;;;;;4.47;2.20;;;;;;;;;;5041659;28;20549;-80
2023/01/11 13:58:28;;;;;;;4.90;2.20;;;;;;;;;;5041970;28;20813;-79
2023/01/11 14:01:00;;;;;;;4.10;2.40;;;;;;;;;;5038798;28;20456;-79
2023/01/11 14:03:35;;;;;;;4.03;2.40;;;;;;;;;;5050643;28;20936;-81
2023/01/11 14:06:24;;;;;;;8.53;4.70;;;;;;;;;;5047742;28;20533;-80
2023/01/11 14:09:06;;;;;;;7.90;3.03;;;;;;;;;;5039940;28;20469;-78
2023/01/11 14:11:40;;;;;;;2.47;1.97;;;;;;;;;;5037537;28;20492;-78
2023/01/11 14:14:26;;;;;;;7.20;2.73;;;;;;;;;;5040424;28;20900;-78
2023/01/11 14:17:06;;;;;;;6.37;2.80;;;;;;;;;;5038527;28;20473;-79
2023/01/11 14:19:39;;;;;;;3.93;2.53;;;;;;;;;;5038875;28;20454;-79
2023/01/11 14:22:20;;;;;;;6.20;4.13;;;;;;;;;;5041223;28;20460;-79
2023/01/11 14:24:53;;;;;;;6.00;2.80;;;;;;;;;;5042057;28;20516;-80
2023/01/11 14:27:51;;;;;;;4.23;2.67;;;;;;;;;;5051810;28;20442;-80
2023/01/11 14:30:36;;;;;;;8.03;3.30;;;;;;;;;;5047965;28;20615;-79
2023/01/11 14:33:29;;;;;;;5.33;3.23;;;;;;;;;;5043066;28;20481;-79
2023/01/11 14:36:11;;;;;;;9.70;3.27;;;;;;;;;;5047363;28;20466;-79
2023/01/11 14:38:51;;;;;;;7.33;3.50;;;;;;;;;;5043270;28;20823;-79
2023/01/11 14:41:34;;;;;;;12.50;4.60;;;;;;;;;;5039138;28;20532;-78
2023/01/11 14:44:23;;;;;;;7.00;2.97;;;;;;;;;;5051305;28;20559;-80
2023/01/11 14:46:57;;;;;;;7.27;3.40;;;;;;;;;;5049477;28;20541;-81
2023/01/11 14:49:34;;;;;;;6.80;3.67;;;;;;;;;;5050221;28;20461;-79
2023/01/11 14:52:04;;;;;;;5.67;2.53;;;;;;;;;;5043571;28;20527;-79
2023/01/11 14:54:33;;;;;;;6.00;2.90;;;;;;;;;;5049787;28;20472;-80
2023/01/11 14:57:09;;;;;;;4.40;3.23;;;;;;;;;;5051253;28;20452;-79
2023/01/11 14:59:38;;;;;;;6.43;3.90;;;;;;;;;;5047601;28;20572;-80
2023/01/11 15:02:17;;;;;;;7.13;3.30;;;;;;;;;;5051257;28;20447;-79
2023/01/11 15:05:03;;;;;;;9.00;3.97;;;;;;;;;;5046980;28;20881;-80
2023/01/11 15:07:36;;;;;;;5.60;3.70;;;;;;;;;;5037432;28;20549;-79
2023/01/11 15:10:07;;;;;;;9.53;3.10;;;;;;;;;;5028967;28;20569;-78
2023/01/11 15:12:45;;;;;;;10.90;3.40;;;;;;;;;;5041045;28;20446;-80
2023/01/11 15:15:17;;;;;;;13.17;4.33;;;;;;;;;;5046442;28;20481;-79
2023/01/11 15:20:33;;;;;;;9.23;3.53;;;;;;;;;;5028532;28;20470;-79
2023/01/11 15:23:03;;;;;;;14.30;3.63;;;;;;;;;;5037433;28;20557;-80
2023/01/11 15:25:38;;;;;;;6.80;3.10;;;;;;;;;;5044922;28;20459;-81
2023/01/11 15:28:25;;;;;;;7.57;4.03;;;;;;;;;;5036164;28;20454;-79
2023/01/11 15:30:55;;;;;;;7.80;4.80;;;;;;;;;;5042282;28;20466;-80
2023/01/11 15:33:31;;;;;;;5.30;3.40;;;;;;;;;;5046964;28;20486;-79
2023/01/11 15:36:10;;;;;;;8.60;3.30;;;;;;;;;;5034139;28;20496;-79
2023/01/11 15:38:47;;;;;;;6.10;3.50;;;;;;;;;;5050386;28;20458;-80
2023/01/11 15:44:22;;;;;;;10.93;5.87;;;;;;;;;;5052017;28;20493;-78
2023/01/11 15:47:04;;;;;;;7.10;4.17;;;;;;;;;;5046874;28;20904;-78
2023/01/11 15:49:52;;;;;;;9.10;4.00;;;;;;;;;;5037708;28;20462;-78
2023/01/11 15:52:37;;;;;;;8.50;5.00;;;;;;;;;;5039177;28;20442;-78
2023/01/11 15:55:25;;;;;;;11.30;5.30;;;;;;;;;;5040375;28;20497;-79
2023/01/11 15:58:03;;;;;;;16.80;11.63;;;;;;;;;;5030519;28;20889;-79
2023/01/11 16:00:49;;;;;;;10.67;3.80;;;;;;;;;;5025214;28;20455;-78